Time,TemperatureF,DewpointF,PressureIn,WindDirection,WindDirectionDegrees,WindSpeedMPH,WindSpeedGustMPH,Humidity,HourlyPrecipIn,Conditions,Clouds,dailyrainin,SolarRadiationWatts/m^2,SoftwareType,DateUTC
2013-11-15 00:00:00,18.1,16.2,30.03,ENE,66,0.0,2.0,92,0.00,,,0.00,0.0,meteohub,2013-11-15 09:00:00,
2013-11-15 00:05:00,18.0,16.0,30.04,ENE,66,0.0,0.0,92,0.00,,,0.00,0.0,meteohub,2013-11-15 09:05:00,
2013-11-15 00:10:00,18.0,16.3,30.04,ENE,66,0.0,0.0,93,0.00,,,0.00,0.0,meteohub,2013-11-15 09:10:00,
2013-11-15 00:15:00,18.1,16.7,30.04,ENE,66,1.0,0.0,94,0.00,,,0.00,0.0,meteohub,2013-11-15 09:15:00,
2013-11-15 00:20:00,18.0,16.0,30.04,ENE,66,0.0,3.0,92,0.00,,,0.00,0.0,meteohub,2013-11-15 09:20:00,
2013-11-15 00:25:00,17.4,15.3,30.04,ENE,66,0.0,2.0,91,0.00,,,0.00,0.0,meteohub,2013-11-15 09:25:00,
2013-11-15 00:30:00,17.1,14.9,30.04,ENE,66,0.0,2.0,91,0.00,,,0.00,0.0,meteohub,2013-11-15 09:30:00,
2013-11-15 00:35:00,16.7,14.5,30.04,ENE,66,0.0,1.0,91,0.00,,,0.00,0.0,meteohub,2013-11-15 09:35:00,
2013-11-15 00:40:00,16.9,15.3,30.04,ENE,66,0.0,4.0,93,0.00,,,0.00,0.0,meteohub,2013-11-15 09:40:00,
2013-11-15 00:45:00,16.9,15.3,30.05,ENE,66,0.0,4.0,93,0.00,,,0.00,0.0,meteohub,2013-11-15 09:45:00,
2013-11-15 00:50:00,16.7,14.7,30.05,ENE,66,1.0,4.0,92,0.00,,,0.00,0.0,meteohub,2013-11-15 09:50:00,
2013-11-15 00:55:00,16.9,15.3,30.05,ENE,66,1.0,3.0,93,0.00,,,0.00,0.0,meteohub,2013-11-15 09:55:00,
2013-11-15 01:00:00,17.4,16.0,30.05,ENE,66,1.0,3.0,94,0.00,,,0.00,0.0,meteohub,2013-11-15 10:00:00,
2013-11-15 01:06:00,17.6,16.0,30.05,ENE,66,0.0,3.0,93,0.00,,,0.00,0.0,meteohub,2013-11-15 10:06:00,
2013-11-15 01:11:00,17.4,15.4,30.05,ENE,66,2.0,3.0,92,0.00,,,0.00,0.0,meteohub,2013-11-15 10:11:00,
2013-11-15 01:16:00,16.9,14.7,30.05,ENE,66,2.0,3.0,91,0.00,,,0.00,0.0,meteohub,2013-11-15 10:16:00,
2013-11-15 01:21:00,16.7,15.1,30.05,ENE,66,1.0,3.0,93,0.00,,,0.00,0.0,meteohub,2013-11-15 10:21:00,
2013-11-15 01:26:00,17.1,15.4,30.05,ENE,66,1.0,3.0,93,0.00,,,0.00,0.0,meteohub,2013-11-15 10:26:00,
2013-11-15 01:31:00,17.2,15.6,30.05,ENE,66,1.0,3.0,93,0.00,,,0.00,0.0,meteohub,2013-11-15 10:31:00,
2013-11-15 01:36:00,17.2,15.3,30.05,ENE,66,2.0,3.0,92,0.00,,,0.00,0.0,meteohub,2013-11-15 10:36:00,
2013-11-15 01:41:00,17.1,14.9,30.04,ENE,66,2.0,3.0,91,0.00,,,0.00,0.0,meteohub,2013-11-15 10:41:00,
2013-11-15 01:46:00,17.1,15.1,30.04,ENE,66,1.0,3.0,92,0.00,,,0.00,0.0,meteohub,2013-11-15 10:46:00,
2013-11-15 01:51:00,16.7,14.5,30.04,ENE,66,2.0,3.0,91,0.00,,,0.00,0.0,meteohub,2013-11-15 10:51:00,
2013-11-15 01:56:00,16.9,15.3,30.04,ENE,66,1.0,2.0,93,0.00,,,0.00,0.0,meteohub,2013-11-15 10:56:00,
2013-11-15 02:01:00,16.9,14.9,30.05,ENE,66,1.0,2.0,92,0.00,,,0.00,0.0,meteohub,2013-11-15 11:01:00,
2013-11-15 02:06:00,16.5,14.4,30.05,ENE,66,0.0,2.0,91,0.00,,,0.00,0.0,meteohub,2013-11-15 11:06:00,
2013-11-15 02:11:00,16.2,14.0,30.06,ENE,66,0.0,2.0,91,0.00,,,0.00,0.0,meteohub,2013-11-15 11:11:00,
2013-11-15 02:16:00,15.6,13.3,30.06,ENE,66,1.0,2.0,90,0.00,,,0.00,0.0,meteohub,2013-11-15 11:16:00,
2013-11-15 02:21:00,15.4,13.3,30.06,ENE,66,1.0,2.0,91,0.00,,,0.00,0.0,meteohub,2013-11-15 11:21:00,
2013-11-15 02:26:00,15.1,12.7,30.06,ENE,66,2.0,2.0,90,0.00,,,0.00,0.0,meteohub,2013-11-15 11:26:00,
2013-11-15 02:31:00,15.1,13.1,30.06,ENE,66,2.0,3.0,92,0.00,,,0.00,0.0,meteohub,2013-11-15 11:31:00,
2013-11-15 02:36:00,15.6,14.0,30.05,ENE,66,2.0,4.0,93,0.00,,,0.00,0.0,meteohub,2013-11-15 11:36:00,
2013-11-15 02:41:00,16.2,14.5,30.05,ENE,66,1.0,4.0,93,0.00,,,0.00,0.0,meteohub,2013-11-15 11:41:00,
2013-11-15 02:46:00,16.0,13.8,30.06,ENE,66,1.0,4.0,91,0.00,,,0.00,0.0,meteohub,2013-11-15 11:46:00,
2013-11-15 02:51:00,15.6,13.6,30.06,ENE,66,1.0,3.0,92,0.00,,,0.00,0.0,meteohub,2013-11-15 11:51:00,
2013-11-15 02:56:00,15.6,13.6,30.06,ENE,66,1.0,3.0,92,0.00,,,0.00,0.0,meteohub,2013-11-15 11:56:00,
2013-11-15 03:01:00,15.4,13.5,30.06,ENE,66,1.0,3.0,92,0.00,,,0.00,0.0,meteohub,2013-11-15 12:01:00,
2013-11-15 03:06:00,16.0,14.5,30.07,ENE,66,2.0,2.0,94,0.00,,,0.00,0.0,meteohub,2013-11-15 12:06:00,
2013-11-15 03:11:00,16.2,14.2,30.07,ENE,66,0.0,3.0,92,0.00,,,0.00,0.0,meteohub,2013-11-15 12:11:00,
2013-11-15 03:16:00,16.2,14.2,30.07,ENE,66,0.0,3.0,92,0.00,,,0.00,0.0,meteohub,2013-11-15 12:16:00,
2013-11-15 03:21:00,16.3,14.7,30.07,ENE,66,0.0,3.0,93,0.00,,,0.00,0.0,meteohub,2013-11-15 12:21:00,
2013-11-15 03:26:00,16.3,14.4,30.07,ENE,66,1.0,2.0,92,0.00,,,0.00,0.0,meteohub,2013-11-15 12:26:00,
2013-11-15 03:31:00,16.5,14.9,30.07,ENE,66,2.0,2.0,93,0.00,,,0.00,0.0,meteohub,2013-11-15 12:31:00,
2013-11-15 03:36:00,17.2,15.8,30.07,ENE,66,1.0,3.0,94,0.00,,,0.00,0.0,meteohub,2013-11-15 12:36:00,
2013-11-15 03:41:00,17.4,15.8,30.07,ENE,66,1.0,3.0,93,0.00,,,0.00,0.0,meteohub,2013-11-15 12:41:00,
2013-11-15 03:46:00,17.2,15.3,30.07,ENE,66,1.0,3.0,92,0.00,,,0.00,0.0,meteohub,2013-11-15 12:46:00,
2013-11-15 03:51:00,17.6,16.2,30.07,ENE,66,0.0,3.0,94,0.00,,,0.00,0.0,meteohub,2013-11-15 12:51:00,
2013-11-15 03:56:00,17.8,16.2,30.07,ENE,66,1.0,2.0,93,0.00,,,0.00,0.0,meteohub,2013-11-15 12:56:00,
2013-11-15 04:01:00,17.4,15.3,30.07,ENE,66,0.0,2.0,91,0.00,,,0.00,0.0,meteohub,2013-11-15 13:01:00,
2013-11-15 04:06:00,17.4,15.4,30.07,ENE,66,1.0,2.0,92,0.00,,,0.00,0.0,meteohub,2013-11-15 13:06:00,
2013-11-15 04:11:00,17.1,14.9,30.07,ENE,66,1.0,2.0,91,0.00,,,0.00,0.0,meteohub,2013-11-15 13:11:00,
2013-11-15 04:17:00,17.2,15.6,30.07,ENE,66,1.0,2.0,93,0.00,,,0.00,0.0,meteohub,2013-11-15 13:17:00,
2013-11-15 04:22:00,17.4,15.8,30.07,ENE,66,1.0,2.0,93,0.00,,,0.00,0.0,meteohub,2013-11-15 13:22:00,
2013-11-15 04:27:00,17.8,16.2,30.07,ENE,66,2.0,3.0,93,0.00,,,0.00,0.0,meteohub,2013-11-15 13:27:00,
2013-11-15 04:32:00,18.1,16.5,30.07,ENE,66,1.0,3.0,93,0.00,,,0.00,0.0,meteohub,2013-11-15 13:32:00,
2013-11-15 04:37:00,18.3,16.3,30.07,ENE,66,2.0,3.0,92,0.00,,,0.00,0.0,meteohub,2013-11-15 13:37:00,
2013-11-15 04:42:00,18.5,16.5,30.07,ENE,66,1.0,4.0,92,0.00,,,0.00,0.0,meteohub,2013-11-15 13:42:00,
2013-11-15 04:47:00,18.7,16.7,30.06,ENE,66,2.0,4.0,92,0.00,,,0.00,0.0,meteohub,2013-11-15 13:47:00,
2013-11-15 04:52:00,18.7,16.7,30.06,ENE,66,2.0,4.0,92,0.00,,,0.00,0.0,meteohub,2013-11-15 13:52:00,
2013-11-15 04:57:00,19.0,17.4,30.06,ENE,66,1.0,3.0,93,0.00,,,0.00,0.0,meteohub,2013-11-15 13:57:00,
2013-11-15 05:02:00,19.8,18.1,30.07,ENE,66,3.0,5.0,93,0.00,,,0.00,0.0,meteohub,2013-11-15 14:02:00,
2013-11-15 05:07:00,20.1,18.1,30.06,ENE,66,2.0,5.0,92,0.00,,,0.00,0.0,meteohub,2013-11-15 14:07:00,
2013-11-15 05:12:00,20.5,18.5,30.06,ENE,66,2.0,5.0,92,0.00,,,0.00,0.0,meteohub,2013-11-15 14:12:00,
2013-11-15 05:17:00,20.8,18.7,30.06,ENE,66,3.0,5.0,91,0.00,,,0.00,0.0,meteohub,2013-11-15 14:17:00,
2013-11-15 05:22:00,20.8,18.7,30.05,ENE,66,1.0,5.0,91,0.00,,,0.00,0.0,meteohub,2013-11-15 14:22:00,
2013-11-15 05:27:00,21.4,19.2,30.06,ENE,62,2.0,8.0,91,0.00,,,0.00,0.0,meteohub,2013-11-15 14:27:00,
2013-11-15 05:32:00,21.6,19.0,30.06,NE,55,3.0,8.0,90,0.00,,,0.00,0.0,meteohub,2013-11-15 14:32:00,
2013-11-15 05:37:00,21.9,19.2,30.06,ENE,65,4.0,8.0,89,0.00,,,0.00,0.0,meteohub,2013-11-15 14:37:00,
2013-11-15 05:42:00,21.9,19.2,30.05,ENE,69,2.0,8.0,89,0.00,,,0.00,0.0,meteohub,2013-11-15 14:42:00,
2013-11-15 05:47:00,22.1,19.4,30.04,NE,45,5.0,8.0,89,0.00,,,0.00,0.0,meteohub,2013-11-15 14:47:00,
2013-11-15 05:52:00,22.1,19.4,30.05,NE,54,4.0,8.0,89,0.00,,,0.00,0.0,meteohub,2013-11-15 14:52:00,
2013-11-15 05:57:00,22.5,19.4,30.04,NE,46,5.0,12.0,88,0.00,,,0.00,0.0,meteohub,2013-11-15 14:57:00,
2013-11-15 06:02:00,22.5,19.4,30.05,NE,54,1.0,12.0,88,0.00,,,0.00,0.0,meteohub,2013-11-15 15:02:00,
2013-11-15 06:07:00,22.6,19.6,30.04,NE,45,6.0,12.0,88,0.00,,,0.00,0.0,meteohub,2013-11-15 15:07:00,
2013-11-15 06:12:00,22.8,19.8,30.05,NNE,25,2.0,9.0,88,0.00,,,0.00,0.0,meteohub,2013-11-15 15:12:00,
2013-11-15 06:17:00,22.8,19.8,30.05,ENE,57,0.0,8.0,88,0.00,,,0.00,0.0,meteohub,2013-11-15 15:17:00,
2013-11-15 06:22:00,22.6,19.6,30.05,East,86,5.0,7.0,88,0.00,,,0.00,0.0,meteohub,2013-11-15 15:22:00,
2013-11-15 06:27:00,22.8,19.8,30.05,NE,44,4.0,7.0,88,0.00,,,0.00,0.0,meteohub,2013-11-15 15:27:00,
2013-11-15 06:32:00,22.8,19.8,30.05,ENE,71,2.0,8.0,88,0.00,,,0.00,0.0,meteohub,2013-11-15 15:32:00,
2013-11-15 06:37:00,23.2,20.1,30.04,ENE,57,2.0,9.0,88,0.00,,,0.00,0.0,meteohub,2013-11-15 15:37:00,
2013-11-15 06:42:00,23.2,20.1,30.04,East,88,5.0,9.0,88,0.00,,,0.00,0.0,meteohub,2013-11-15 15:42:00,
2013-11-15 06:47:00,23.2,20.1,30.04,ENE,61,1.0,9.0,88,0.00,,,0.00,0.0,meteohub,2013-11-15 15:47:00,
2013-11-15 06:52:00,23.2,19.9,30.04,ENE,63,5.0,8.0,87,0.00,,,0.00,0.0,meteohub,2013-11-15 15:52:00,
2013-11-15 06:57:00,23.2,19.9,30.04,ENE,67,7.0,9.0,87,0.00,,,0.00,0.0,meteohub,2013-11-15 15:57:00,
2013-11-15 07:02:00,23.4,19.8,30.04,ENE,74,2.0,9.0,86,0.00,,,0.00,0.0,meteohub,2013-11-15 16:02:00,
2013-11-15 07:06:00,23.4,20.1,30.04,NE,40,2.0,9.0,87,0.00,,,0.00,0.0,meteohub,2013-11-15 16:06:00,
2013-11-15 07:12:00,23.4,19.8,30.05,NE,40,2.0,9.0,86,0.00,,,0.00,0.0,meteohub,2013-11-15 16:12:00,
2013-11-15 07:17:00,23.5,19.9,30.04,NE,35,3.0,10.0,86,0.00,,,0.00,0.0,meteohub,2013-11-15 16:17:00,
2013-11-15 07:22:00,23.7,20.1,30.04,NE,56,5.0,10.0,86,0.00,,,0.00,0.0,meteohub,2013-11-15 16:22:00,
2013-11-15 07:27:00,23.7,20.1,30.04,NE,50,1.0,10.0,86,0.00,,,0.00,0.0,meteohub,2013-11-15 16:27:00,
2013-11-15 07:32:00,23.5,19.8,30.04,NE,51,4.0,9.0,85,0.00,,,0.00,0.0,meteohub,2013-11-15 16:32:00,
2013-11-15 07:37:00,23.5,19.8,30.04,ENE,65,3.0,11.0,85,0.00,,,0.00,0.0,meteohub,2013-11-15 16:37:00,
2013-11-15 07:42:00,23.4,19.8,30.04,ENE,60,1.0,11.0,86,0.00,,,0.00,0.0,meteohub,2013-11-15 16:42:00,
2013-11-15 07:47:00,23.4,19.8,30.04,NE,51,4.0,11.0,86,0.00,,,0.00,0.0,meteohub,2013-11-15 16:47:00,
2013-11-15 07:52:00,23.4,19.8,30.04,NE,45,4.0,9.0,86,0.00,,,0.00,0.0,meteohub,2013-11-15 16:52:00,
2013-11-15 07:57:00,23.4,19.8,30.04,East,80,2.0,7.0,86,0.00,,,0.00,0.0,meteohub,2013-11-15 16:57:00,
2013-11-15 08:02:00,23.4,19.8,30.04,NE,44,5.0,8.0,86,0.00,,,0.00,0.0,meteohub,2013-11-15 17:02:00,
2013-11-15 08:07:00,23.2,19.9,30.04,ENE,71,7.0,8.0,87,0.00,,,0.00,0.0,meteohub,2013-11-15 17:07:00,
2013-11-15 08:12:00,23.4,19.8,30.04,ENE,64,3.0,8.0,86,0.00,,,0.00,0.0,meteohub,2013-11-15 17:12:00,
2013-11-15 08:17:00,23.4,19.6,30.04,ENE,58,3.0,11.0,85,0.00,,,0.00,0.0,meteohub,2013-11-15 17:17:00,
2013-11-15 08:22:00,23.2,19.6,30.03,ENE,71,5.0,11.0,86,0.00,,,0.00,0.0,meteohub,2013-11-15 17:22:00,
2013-11-15 08:27:00,23.2,19.4,30.04,ENE,71,2.0,11.0,85,0.00,,,0.00,0.0,meteohub,2013-11-15 17:27:00,
2013-11-15 08:32:00,23.2,19.6,30.04,East,95,5.0,9.0,86,0.00,,,0.00,0.0,meteohub,2013-11-15 17:32:00,
2013-11-15 08:37:00,23.2,19.6,30.04,NNE,29,3.0,9.0,86,0.00,,,0.00,0.0,meteohub,2013-11-15 17:37:00,
2013-11-15 08:42:00,23.4,19.6,30.03,ENE,61,3.0,9.0,85,0.00,,,0.00,0.0,meteohub,2013-11-15 17:42:00,
2013-11-15 08:47:00,23.4,19.6,30.04,NE,51,3.0,9.0,85,0.00,,,0.00,0.0,meteohub,2013-11-15 17:47:00,
2013-11-15 08:52:00,23.5,19.8,30.04,NE,52,3.0,8.0,85,0.00,,,0.00,0.0,meteohub,2013-11-15 17:52:00,
2013-11-15 08:57:00,23.5,19.8,30.04,NE,45,5.0,8.0,85,0.00,,,0.00,0.0,meteohub,2013-11-15 17:57:00,
2013-11-15 09:02:00,23.5,19.8,30.03,NE,34,5.0,7.0,85,0.00,,,0.00,0.0,meteohub,2013-11-15 18:02:00,
2013-11-15 09:07:00,23.5,19.8,30.03,NE,49,4.0,7.0,85,0.00,,,0.00,0.0,meteohub,2013-11-15 18:07:00,
2013-11-15 09:12:00,23.5,19.8,30.02,ENE,67,0.0,9.0,85,0.00,,,0.00,0.0,meteohub,2013-11-15 18:12:00,
2013-11-15 09:17:00,23.5,19.8,30.02,NE,36,3.0,9.0,85,0.00,,,0.00,0.0,meteohub,2013-11-15 18:17:00,
2013-11-15 09:22:00,23.5,19.8,30.03,NE,46,1.0,9.0,85,0.00,,,0.00,0.0,meteohub,2013-11-15 18:22:00,
2013-11-15 09:27:00,23.5,19.8,30.03,NE,48,0.0,6.0,85,0.00,,,0.00,5.0,meteohub,2013-11-15 18:27:00,
2013-11-15 09:32:00,23.5,19.4,30.04,NE,48,1.0,6.0,84,0.00,,,0.00,5.0,meteohub,2013-11-15 18:32:00,
2013-11-15 09:37:00,23.5,19.8,30.04,ENE,59,2.0,3.0,85,0.00,,,0.00,5.0,meteohub,2013-11-15 18:37:00,
2013-11-15 09:42:00,23.4,19.6,30.04,ENE,59,1.0,5.0,85,0.00,,,0.00,7.0,meteohub,2013-11-15 18:42:00,
2013-11-15 09:47:00,23.4,19.6,30.04,ENE,59,0.0,5.0,85,0.00,,,0.00,11.0,meteohub,2013-11-15 18:47:00,
2013-11-15 09:52:00,23.2,19.4,30.03,ENE,59,1.0,5.0,85,0.00,,,0.00,11.0,meteohub,2013-11-15 18:52:00,
2013-11-15 09:57:00,23.2,19.4,30.04,ENE,59,2.0,4.0,85,0.00,,,0.00,14.0,meteohub,2013-11-15 18:57:00,
2013-11-15 10:02:00,23.0,19.4,30.03,ENE,59,1.0,4.0,86,0.00,,,0.00,12.0,meteohub,2013-11-15 19:02:00,
2013-11-15 10:07:00,22.8,19.2,30.03,North,5,0.0,4.0,86,0.00,,,0.00,16.0,meteohub,2013-11-15 19:07:00,
2013-11-15 10:12:00,22.8,19.2,30.03,NNE,17,1.0,4.0,86,0.00,,,0.00,16.0,meteohub,2013-11-15 19:12:00,
2013-11-15 10:17:00,22.8,19.2,30.03,NNE,18,2.0,3.0,86,0.00,,,0.00,16.0,meteohub,2013-11-15 19:17:00,
2013-11-15 10:22:00,22.8,19.2,30.03,NNE,33,3.0,3.0,86,0.00,,,0.00,18.0,meteohub,2013-11-15 19:22:00,
2013-11-15 10:27:00,22.8,19.6,30.03,NE,34,4.0,5.0,87,0.00,,,0.00,19.0,meteohub,2013-11-15 19:27:00,
2013-11-15 10:32:00,22.8,19.6,30.03,NE,44,2.0,6.0,87,0.00,,,0.00,21.0,meteohub,2013-11-15 19:32:00,
2013-11-15 10:37:00,22.8,19.6,30.03,NE,44,2.0,6.0,87,0.00,,,0.00,25.0,meteohub,2013-11-15 19:37:00,
2013-11-15 10:42:00,22.8,19.6,30.03,NE,44,0.0,6.0,87,0.00,,,0.00,28.0,meteohub,2013-11-15 19:42:00,
2013-11-15 10:47:00,22.8,19.6,30.02,NE,44,0.0,5.0,87,0.00,,,0.00,30.0,meteohub,2013-11-15 19:47:00,
2013-11-15 10:52:00,23.0,19.8,30.02,ENE,61,3.0,3.0,87,0.00,,,0.00,33.0,meteohub,2013-11-15 19:52:00,
2013-11-15 10:57:00,23.0,19.8,30.01,ENE,61,1.0,3.0,87,0.00,,,0.00,40.0,meteohub,2013-11-15 19:57:00,
2013-11-15 11:02:00,23.2,19.9,30.01,ENE,61,2.0,3.0,87,0.00,,,0.00,44.0,meteohub,2013-11-15 20:02:00,
2013-11-15 11:07:00,23.2,19.4,30.01,ENE,65,2.0,4.0,85,0.00,,,0.00,37.0,meteohub,2013-11-15 20:07:00,
2013-11-15 11:12:00,23.4,19.6,30.02,ENE,65,2.0,5.0,85,0.00,,,0.00,37.0,meteohub,2013-11-15 20:12:00,
2013-11-15 11:17:00,23.4,19.6,30.02,ENE,65,1.0,5.0,85,0.00,,,0.00,46.0,meteohub,2013-11-15 20:17:00,
2013-11-15 11:22:00,23.5,20.3,30.01,ENE,66,2.0,4.0,87,0.00,,,0.00,53.0,meteohub,2013-11-15 20:22:00,
2013-11-15 11:27:00,23.5,19.8,30.01,ENE,66,0.0,4.0,85,0.00,,,0.00,62.0,meteohub,2013-11-15 20:27:00,
2013-11-15 11:32:00,23.4,19.6,30.01,ENE,71,2.0,3.0,85,0.00,,,0.00,51.0,meteohub,2013-11-15 20:32:00,
2013-11-15 11:37:00,23.4,19.6,30.00,ENE,70,2.0,3.0,85,0.00,,,0.00,39.0,meteohub,2013-11-15 20:37:00,
2013-11-15 11:42:00,23.4,19.8,29.99,ENE,71,2.0,4.0,86,0.00,,,0.00,51.0,meteohub,2013-11-15 20:42:00,
2013-11-15 11:47:00,23.4,19.8,30.00,ENE,71,2.0,4.0,86,0.00,,,0.00,54.0,meteohub,2013-11-15 20:47:00,
2013-11-15 11:52:00,23.4,19.8,30.00,ENE,72,3.0,4.0,86,0.00,,,0.00,60.0,meteohub,2013-11-15 20:52:00,
2013-11-15 11:57:00,23.4,19.8,30.00,ENE,76,0.0,4.0,86,0.00,,,0.00,58.0,meteohub,2013-11-15 20:57:00,
2013-11-15 12:02:00,23.2,19.6,30.00,East,95,6.0,6.0,86,0.00,,,0.00,62.0,meteohub,2013-11-15 21:02:00,
2013-11-15 12:07:00,23.2,19.6,30.00,East,91,1.0,6.0,86,0.00,,,0.00,67.0,meteohub,2013-11-15 21:07:00,
2013-11-15 12:12:00,23.4,19.8,30.00,ENE,70,0.0,6.0,86,0.00,,,0.00,70.0,meteohub,2013-11-15 21:12:00,
2013-11-15 12:17:00,23.4,19.8,30.00,ENE,70,1.0,6.0,86,0.00,,,0.00,63.0,meteohub,2013-11-15 21:17:00,
2013-11-15 12:22:00,23.5,20.3,30.01,ENE,70,1.0,5.0,87,0.00,,,0.00,65.0,meteohub,2013-11-15 21:22:00,
2013-11-15 12:27:00,23.5,20.3,30.01,ENE,70,0.0,4.0,87,0.00,,,0.00,63.0,meteohub,2013-11-15 21:27:00,
2013-11-15 12:32:00,23.7,20.5,30.01,ENE,70,1.0,4.0,87,0.00,,,0.00,56.0,meteohub,2013-11-15 21:32:00,
2013-11-15 12:37:00,23.7,20.1,30.00,ENE,70,1.0,4.0,86,0.00,,,0.00,47.0,meteohub,2013-11-15 21:37:00,
2013-11-15 12:42:00,23.7,20.5,30.00,ENE,70,0.0,4.0,87,0.00,,,0.00,60.0,meteohub,2013-11-15 21:42:00,
2013-11-15 12:47:00,23.7,20.1,30.00,ENE,70,0.0,4.0,86,0.00,,,0.00,84.0,meteohub,2013-11-15 21:47:00,
2013-11-15 12:52:00,23.7,20.5,29.99,ENE,70,0.0,3.0,87,0.00,,,0.00,84.0,meteohub,2013-11-15 21:52:00,
2013-11-15 12:57:00,23.9,20.3,29.99,ENE,70,0.0,1.0,86,0.00,,,0.00,88.0,meteohub,2013-11-15 21:57:00,
2013-11-15 13:02:00,24.1,20.5,29.99,ENE,70,1.0,2.0,86,0.00,,,0.00,81.0,meteohub,2013-11-15 22:02:00,
2013-11-15 13:07:00,24.1,20.8,29.99,ENE,70,2.0,2.0,87,0.00,,,0.00,84.0,meteohub,2013-11-15 22:07:00,
2013-11-15 13:12:00,24.1,20.8,29.98,ENE,70,0.0,2.0,87,0.00,,,0.00,84.0,meteohub,2013-11-15 22:12:00,
2013-11-15 13:17:00,24.1,20.8,29.99,ENE,70,0.0,3.0,87,0.00,,,0.00,86.0,meteohub,2013-11-15 22:17:00,
2013-11-15 13:22:00,24.3,21.0,29.98,ENE,70,1.0,3.0,87,0.00,,,0.00,137.0,meteohub,2013-11-15 22:22:00,
2013-11-15 13:27:00,24.4,21.4,29.98,ENE,70,0.0,3.0,88,0.00,,,0.00,98.0,meteohub,2013-11-15 22:27:00,
2013-11-15 13:32:00,24.4,21.2,29.97,ENE,70,3.0,3.0,87,0.00,,,0.00,86.0,meteohub,2013-11-15 22:32:00,
2013-11-15 13:37:00,24.4,21.2,29.96,ENE,70,0.0,3.0,87,0.00,,,0.00,79.0,meteohub,2013-11-15 22:37:00,
2013-11-15 13:42:00,24.6,21.6,29.97,ENE,70,0.0,3.0,88,0.00,,,0.00,67.0,meteohub,2013-11-15 22:42:00,
2013-11-15 13:47:00,24.8,21.7,29.97,ENE,70,0.0,3.0,88,0.00,,,0.00,47.0,meteohub,2013-11-15 22:47:00,
2013-11-15 13:52:00,25.0,22.3,29.97,ENE,70,0.0,2.0,89,0.00,,,0.00,49.0,meteohub,2013-11-15 22:52:00,
2013-11-15 13:57:00,25.2,22.1,29.97,ENE,70,0.0,1.0,88,0.00,,,0.00,54.0,meteohub,2013-11-15 22:57:00,
2013-11-15 14:02:00,25.2,22.1,29.97,ENE,70,0.0,0.0,88,0.00,,,0.00,51.0,meteohub,2013-11-15 23:02:00,
2013-11-15 14:07:00,25.2,22.5,29.97,ENE,70,0.0,0.0,89,0.00,,,0.00,77.0,meteohub,2013-11-15 23:07:00,
2013-11-15 14:12:00,25.2,22.6,29.97,ENE,70,0.0,0.0,90,0.00,,,0.00,70.0,meteohub,2013-11-15 23:12:00,
2013-11-15 14:17:00,25.2,22.6,29.97,ENE,70,1.0,1.0,90,0.00,,,0.00,76.0,meteohub,2013-11-15 23:17:00,
2013-11-15 14:22:00,25.3,23.0,29.97,ENE,70,1.0,1.0,91,0.00,,,0.00,88.0,meteohub,2013-11-15 23:22:00,
2013-11-15 14:27:00,25.3,23.0,29.97,ENE,70,0.0,2.0,91,0.00,,,0.00,83.0,meteohub,2013-11-15 23:27:00,
2013-11-15 14:32:00,25.5,23.2,29.97,ENE,70,0.0,2.0,91,0.00,,,0.00,69.0,meteohub,2013-11-15 23:32:00,
2013-11-15 14:37:00,25.5,23.0,29.97,ENE,70,0.0,2.0,90,0.00,,,0.00,53.0,meteohub,2013-11-15 23:37:00,
2013-11-15 14:42:00,25.5,23.0,29.97,ENE,70,0.0,1.0,90,0.00,,,0.00,49.0,meteohub,2013-11-15 23:42:00,
2013-11-15 14:47:00,25.3,22.8,29.97,ENE,70,0.0,1.0,90,0.00,,,0.00,40.0,meteohub,2013-11-15 23:47:00,
2013-11-15 14:52:00,25.3,22.8,29.96,ENE,70,0.0,0.0,90,0.00,,,0.00,37.0,meteohub,2013-11-15 23:52:00,
2013-11-15 14:58:00,25.3,22.8,29.96,ENE,70,0.0,0.0,90,0.00,,,0.00,35.0,meteohub,2013-11-15 23:58:00,
2013-11-15 15:03:00,25.3,22.8,29.97,ENE,70,0.0,0.0,90,0.00,,,0.00,30.0,meteohub,2013-11-16 00:03:00,
2013-11-15 15:08:00,25.3,22.6,29.97,ENE,70,0.0,0.0,89,0.00,,,0.00,30.0,meteohub,2013-11-16 00:08:00,
2013-11-15 15:13:00,25.2,22.5,29.97,ENE,70,0.0,0.0,89,0.00,,,0.00,21.0,meteohub,2013-11-16 00:13:00,
2013-11-15 15:18:00,25.2,22.6,29.97,ENE,70,0.0,0.0,90,0.00,,,0.00,21.0,meteohub,2013-11-16 00:18:00,
2013-11-15 15:23:00,25.0,22.5,29.96,ENE,70,0.0,0.0,90,0.00,,,0.00,21.0,meteohub,2013-11-16 00:23:00,
2013-11-15 15:28:00,24.8,22.3,29.96,ENE,70,0.0,0.0,90,0.00,,,0.00,18.0,meteohub,2013-11-16 00:28:00,
2013-11-15 15:33:00,24.6,22.5,29.96,ENE,70,0.0,0.0,91,0.00,,,0.00,18.0,meteohub,2013-11-16 00:33:00,
2013-11-15 15:38:00,24.4,22.3,29.96,ENE,70,0.0,0.0,91,0.00,,,0.00,14.0,meteohub,2013-11-16 00:38:00,
2013-11-15 15:43:00,24.3,22.1,29.96,ENE,70,0.0,0.0,91,0.00,,,0.00,12.0,meteohub,2013-11-16 00:43:00,
2013-11-15 15:48:00,24.3,22.5,29.96,ENE,70,0.0,0.0,93,0.00,,,0.00,11.0,meteohub,2013-11-16 00:48:00,
2013-11-15 15:53:00,24.3,22.3,29.96,ENE,70,0.0,0.0,92,0.00,,,0.00,11.0,meteohub,2013-11-16 00:53:00,
2013-11-15 15:58:00,24.1,22.1,29.96,ENE,70,0.0,0.0,92,0.00,,,0.00,9.0,meteohub,2013-11-16 00:58:00,
2013-11-15 16:03:00,23.7,21.6,29.96,ENE,70,0.0,0.0,91,0.00,,,0.00,7.0,meteohub,2013-11-16 01:03:00,
2013-11-15 16:08:00,23.5,21.4,29.96,ENE,70,0.0,0.0,91,0.00,,,0.00,7.0,meteohub,2013-11-16 01:08:00,
2013-11-15 16:13:00,23.2,21.0,29.96,ENE,70,0.0,0.0,91,0.00,,,0.00,5.0,meteohub,2013-11-16 01:13:00,
2013-11-15 16:18:00,22.6,20.5,29.96,ENE,70,0.0,0.0,91,0.00,,,0.00,5.0,meteohub,2013-11-16 01:18:00,
2013-11-15 16:23:00,22.5,20.5,29.96,ENE,70,0.0,0.0,92,0.00,,,0.00,0.0,meteohub,2013-11-16 01:23:00,
2013-11-15 16:28:00,22.3,20.3,29.96,ENE,70,0.0,0.0,92,0.00,,,0.00,0.0,meteohub,2013-11-16 01:28:00,
2013-11-15 16:33:00,21.7,19.8,29.96,ENE,70,0.0,0.0,92,0.00,,,0.00,0.0,meteohub,2013-11-16 01:33:00,
2013-11-15 16:38:00,21.6,19.6,29.96,ENE,70,0.0,0.0,92,0.00,,,0.00,0.0,meteohub,2013-11-16 01:38:00,
2013-11-15 16:43:00,21.4,19.4,29.95,ENE,70,0.0,0.0,92,0.00,,,0.00,0.0,meteohub,2013-11-16 01:43:00,
2013-11-15 16:48:00,21.0,19.0,29.95,ENE,70,0.0,0.0,92,0.00,,,0.00,0.0,meteohub,2013-11-16 01:48:00,
2013-11-15 16:53:00,20.7,18.7,29.96,ENE,70,0.0,0.0,92,0.00,,,0.00,0.0,meteohub,2013-11-16 01:53:00,
2013-11-15 16:58:00,20.3,18.3,29.96,ENE,70,0.0,0.0,92,0.00,,,0.00,0.0,meteohub,2013-11-16 01:58:00,
2013-11-15 17:03:00,19.9,17.8,29.96,ENE,70,0.0,0.0,91,0.00,,,0.00,0.0,meteohub,2013-11-16 02:03:00,
2013-11-15 17:08:00,19.6,17.4,29.96,ENE,70,0.0,0.0,91,0.00,,,0.00,0.0,meteohub,2013-11-16 02:08:00,
2013-11-15 17:13:00,19.0,17.1,29.96,ENE,70,0.0,0.0,92,0.00,,,0.00,0.0,meteohub,2013-11-16 02:13:00,
2013-11-15 17:18:00,19.0,17.1,29.96,ENE,70,0.0,0.0,92,0.00,,,0.00,0.0,meteohub,2013-11-16 02:18:00,
2013-11-15 17:23:00,18.9,16.9,29.96,ENE,70,0.0,0.0,92,0.00,,,0.00,0.0,meteohub,2013-11-16 02:23:00,
2013-11-15 17:29:00,18.7,16.7,29.96,ENE,70,0.0,0.0,92,0.00,,,0.00,0.0,meteohub,2013-11-16 02:29:00,
2013-11-15 17:34:00,18.3,16.3,29.96,ENE,70,0.0,0.0,92,0.00,,,0.00,0.0,meteohub,2013-11-16 02:34:00,
2013-11-15 17:39:00,18.0,15.8,29.96,ENE,70,0.0,0.0,91,0.00,,,0.00,0.0,meteohub,2013-11-16 02:39:00,
2013-11-15 17:44:00,17.4,15.3,29.96,ENE,70,0.0,0.0,91,0.00,,,0.00,0.0,meteohub,2013-11-16 02:44:00,
2013-11-15 17:49:00,17.1,14.9,29.96,ENE,70,0.0,0.0,91,0.00,,,0.00,0.0,meteohub,2013-11-16 02:49:00,
2013-11-15 17:54:00,16.9,14.7,29.96,ENE,70,0.0,0.0,91,0.00,,,0.00,0.0,meteohub,2013-11-16 02:54:00,
2013-11-15 17:59:00,16.5,14.5,29.96,ENE,70,0.0,0.0,92,0.00,,,0.00,0.0,meteohub,2013-11-16 02:59:00,
2013-11-15 18:04:00,16.3,14.2,29.96,ENE,70,0.0,0.0,91,0.00,,,0.00,0.0,meteohub,2013-11-16 03:04:00,
2013-11-15 18:09:00,16.2,14.0,29.96,ENE,70,0.0,0.0,91,0.00,,,0.00,0.0,meteohub,2013-11-16 03:09:00,
2013-11-15 18:14:00,15.8,13.6,29.96,ENE,70,0.0,0.0,91,0.00,,,0.00,0.0,meteohub,2013-11-16 03:14:00,
2013-11-15 18:19:00,15.4,13.1,29.96,ENE,70,0.0,0.0,90,0.00,,,0.00,0.0,meteohub,2013-11-16 03:19:00,
2013-11-15 18:24:00,15.3,13.1,29.96,ENE,70,0.0,0.0,91,0.00,,,0.00,0.0,meteohub,2013-11-16 03:24:00,
2013-11-15 18:29:00,15.1,12.9,29.96,ENE,70,0.0,0.0,91,0.00,,,0.00,0.0,meteohub,2013-11-16 03:29:00,
2013-11-15 18:34:00,15.1,13.1,29.96,ENE,70,0.0,0.0,92,0.00,,,0.00,0.0,meteohub,2013-11-16 03:34:00,
2013-11-15 18:39:00,14.9,12.7,29.96,ENE,70,0.0,0.0,91,0.00,,,0.00,0.0,meteohub,2013-11-16 03:39:00,
2013-11-15 18:44:00,14.7,12.6,29.96,ENE,70,0.0,0.0,91,0.00,,,0.00,0.0,meteohub,2013-11-16 03:44:00,
2013-11-15 18:49:00,14.5,12.4,29.96,ENE,70,0.0,0.0,91,0.00,,,0.00,0.0,meteohub,2013-11-16 03:49:00,
2013-11-15 18:54:00,14.4,12.0,29.96,ENE,70,0.0,0.0,90,0.00,,,0.00,0.0,meteohub,2013-11-16 03:54:00,
2013-11-15 18:59:00,14.2,11.8,29.96,ENE,70,0.0,0.0,90,0.00,,,0.00,0.0,meteohub,2013-11-16 03:59:00,
2013-11-15 19:04:00,13.8,11.5,29.96,ENE,70,0.0,0.0,90,0.00,,,0.00,0.0,meteohub,2013-11-16 04:04:00,
2013-11-15 19:09:00,13.6,11.3,29.96,ENE,70,0.0,0.0,90,0.00,,,0.00,0.0,meteohub,2013-11-16 04:09:00,
2013-11-15 19:14:00,13.5,11.1,29.96,ENE,70,0.0,0.0,90,0.00,,,0.00,0.0,meteohub,2013-11-16 04:14:00,
2013-11-15 19:19:00,13.3,10.9,29.96,ENE,70,0.0,0.0,90,0.00,,,0.00,0.0,meteohub,2013-11-16 04:19:00,
2013-11-15 19:24:00,13.1,10.9,29.96,ENE,70,0.0,0.0,91,0.00,,,0.00,0.0,meteohub,2013-11-16 04:24:00,
2013-11-15 19:29:00,13.1,10.9,29.96,ENE,70,0.0,0.0,91,0.00,,,0.00,0.0,meteohub,2013-11-16 04:29:00,
2013-11-15 19:34:00,13.5,11.7,29.96,ENE,70,0.0,0.0,92,0.00,,,0.00,0.0,meteohub,2013-11-16 04:34:00,
2013-11-15 19:39:00,13.3,11.1,29.97,ENE,70,0.0,3.0,91,0.00,,,0.00,0.0,meteohub,2013-11-16 04:39:00,
2013-11-15 19:44:00,13.1,10.8,29.97,ENE,70,0.0,3.0,90,0.00,,,0.00,0.0,meteohub,2013-11-16 04:44:00,
2013-11-15 19:49:00,12.7,10.4,29.97,ENE,70,0.0,3.0,90,0.00,,,0.00,0.0,meteohub,2013-11-16 04:49:00,
2013-11-15 19:54:00,12.6,10.2,29.97,ENE,70,0.0,2.0,90,0.00,,,0.00,0.0,meteohub,2013-11-16 04:54:00,
2013-11-15 19:59:00,12.2,9.9,29.96,ENE,70,0.0,0.0,90,0.00,,,0.00,0.0,meteohub,2013-11-16 04:59:00,
2013-11-15 20:01:00,12.2,9.9,29.96,ENE,70,0.0,0.0,90,0.00,,,0.00,0.0,meteohub,2013-11-16 05:01:00,
2013-11-15 20:06:00,11.8,9.5,29.96,ENE,70,0.0,0.0,90,0.00,,,0.00,0.0,meteohub,2013-11-16 05:06:00,
2013-11-15 20:11:00,11.8,9.7,29.97,ENE,70,0.0,0.0,91,0.00,,,0.00,0.0,meteohub,2013-11-16 05:11:00,
2013-11-15 20:16:00,12.0,9.9,29.97,ENE,70,0.0,0.0,91,0.00,,,0.00,0.0,meteohub,2013-11-16 05:16:00,
2013-11-15 20:21:00,12.0,9.9,29.97,ENE,70,0.0,0.0,91,0.00,,,0.00,0.0,meteohub,2013-11-16 05:21:00,
2013-11-15 20:27:00,12.0,9.9,29.97,ENE,70,0.0,0.0,91,0.00,,,0.00,0.0,meteohub,2013-11-16 05:27:00,
2013-11-15 20:32:00,12.0,9.7,29.97,ENE,70,2.0,0.0,90,0.00,,,0.00,0.0,meteohub,2013-11-16 05:32:00,
2013-11-15 20:36:00,12.0,9.9,29.97,ENE,70,0.0,3.0,91,0.00,,,0.00,0.0,meteohub,2013-11-16 05:36:00,
2013-11-15 20:41:00,12.2,10.4,29.97,ENE,70,2.0,3.0,92,0.00,,,0.00,0.0,meteohub,2013-11-16 05:41:00,
2013-11-15 20:46:00,12.2,9.9,29.96,ENE,70,2.0,3.0,90,0.00,,,0.00,0.0,meteohub,2013-11-16 05:46:00,
2013-11-15 20:52:00,11.8,9.5,29.96,ENE,70,2.0,3.0,90,0.00,,,0.00,0.0,meteohub,2013-11-16 05:52:00,
2013-11-15 20:57:00,11.8,9.7,29.97,ENE,70,0.0,3.0,91,0.00,,,0.00,0.0,meteohub,2013-11-16 05:57:00,
2013-11-15 21:02:00,11.8,9.7,29.97,ENE,70,0.0,2.0,91,0.00,,,0.00,0.0,meteohub,2013-11-16 06:02:00,
2013-11-15 21:07:00,11.8,9.7,29.97,ENE,70,0.0,2.0,91,0.00,,,0.00,0.0,meteohub,2013-11-16 06:07:00,
2013-11-15 21:12:00,11.8,9.5,29.97,ENE,70,0.0,0.0,90,0.00,,,0.00,0.0,meteohub,2013-11-16 06:12:00,
2013-11-15 21:17:00,11.7,9.1,29.97,ENE,70,0.0,0.0,89,0.00,,,0.00,0.0,meteohub,2013-11-16 06:17:00,
2013-11-15 21:22:00,11.1,8.6,29.97,ENE,70,0.0,0.0,89,0.00,,,0.00,0.0,meteohub,2013-11-16 06:22:00,
2013-11-15 21:27:00,10.9,8.6,29.98,ENE,70,0.0,0.0,90,0.00,,,0.00,0.0,meteohub,2013-11-16 06:27:00,
2013-11-15 21:32:00,10.8,8.4,29.98,ENE,70,0.0,0.0,90,0.00,,,0.00,0.0,meteohub,2013-11-16 06:32:00,
2013-11-15 21:36:00,10.8,8.4,29.98,ENE,70,0.0,0.0,90,0.00,,,0.00,0.0,meteohub,2013-11-16 06:36:00,
2013-11-15 21:41:00,10.8,8.4,29.98,ENE,70,0.0,0.0,90,0.00,,,0.00,0.0,meteohub,2013-11-16 06:41:00,
2013-11-15 21:46:00,10.6,8.2,29.98,ENE,70,0.0,0.0,90,0.00,,,0.00,0.0,meteohub,2013-11-16 06:46:00,
2013-11-15 21:51:00,10.6,8.4,29.98,ENE,70,0.0,0.0,91,0.00,,,0.00,0.0,meteohub,2013-11-16 06:51:00,
2013-11-15 21:57:00,10.6,8.4,29.98,ENE,70,0.0,0.0,91,0.00,,,0.00,0.0,meteohub,2013-11-16 06:57:00,
2013-11-15 22:01:00,10.8,8.6,29.98,ENE,70,0.0,0.0,91,0.00,,,0.00,0.0,meteohub,2013-11-16 07:01:00,
2013-11-15 22:06:00,10.8,8.6,29.98,ENE,70,0.0,0.0,91,0.00,,,0.00,0.0,meteohub,2013-11-16 07:06:00,
2013-11-15 22:12:00,10.9,9.1,29.98,ENE,70,0.0,0.0,92,0.00,,,0.00,0.0,meteohub,2013-11-16 07:12:00,
2013-11-15 22:17:00,11.3,9.5,29.98,ENE,70,0.0,0.0,92,0.00,,,0.00,0.0,meteohub,2013-11-16 07:17:00,
2013-11-15 22:22:00,11.7,9.9,29.99,ENE,70,0.0,0.0,92,0.00,,,0.00,0.0,meteohub,2013-11-16 07:22:00,
2013-11-15 22:27:00,12.0,10.2,29.99,ENE,69,0.0,0.0,92,0.00,,,0.00,0.0,meteohub,2013-11-16 07:27:00,
2013-11-15 22:32:00,12.2,10.4,29.99,ENE,70,0.0,0.0,92,0.00,,,0.00,0.0,meteohub,2013-11-16 07:32:00,
2013-11-15 22:37:00,12.4,10.6,29.99,ENE,69,0.0,0.0,92,0.00,,,0.00,0.0,meteohub,2013-11-16 07:37:00,
2013-11-15 22:42:00,12.4,10.6,29.99,ENE,70,0.0,0.0,92,0.00,,,0.00,0.0,meteohub,2013-11-16 07:42:00,
2013-11-15 22:47:00,12.6,10.8,29.99,ENE,70,0.0,0.0,92,0.00,,,0.00,0.0,meteohub,2013-11-16 07:47:00,
2013-11-15 22:52:00,12.6,10.8,29.99,ENE,69,0.0,0.0,92,0.00,,,0.00,0.0,meteohub,2013-11-16 07:52:00,
2013-11-15 22:57:00,12.7,10.9,29.99,ENE,69,0.0,0.0,92,0.00,,,0.00,0.0,meteohub,2013-11-16 07:57:00,
2013-11-15 23:02:00,12.9,11.1,29.99,ENE,70,0.0,0.0,92,0.00,,,0.00,0.0,meteohub,2013-11-16 08:02:00,
2013-11-15 23:07:00,13.1,11.3,29.99,ENE,70,0.0,0.0,92,0.00,,,0.00,0.0,meteohub,2013-11-16 08:07:00,
2013-11-15 23:12:00,13.1,11.3,29.99,ENE,70,0.0,0.0,92,0.00,,,0.00,0.0,meteohub,2013-11-16 08:12:00,
2013-11-15 23:17:00,13.1,10.9,29.99,ENE,70,0.0,0.0,91,0.00,,,0.00,0.0,meteohub,2013-11-16 08:17:00,
2013-11-15 23:22:00,13.1,10.9,29.99,ENE,70,0.0,0.0,91,0.00,,,0.00,0.0,meteohub,2013-11-16 08:22:00,
2013-11-15 23:27:00,13.1,10.9,29.99,ENE,70,0.0,0.0,91,0.00,,,0.00,0.0,meteohub,2013-11-16 08:27:00,
2013-11-15 23:32:00,13.3,11.5,29.99,ENE,70,0.0,0.0,92,0.00,,,0.00,0.0,meteohub,2013-11-16 08:32:00,
2013-11-15 23:37:00,13.5,11.7,30.00,ENE,69,0.0,0.0,92,0.00,,,0.00,0.0,meteohub,2013-11-16 08:37:00,
2013-11-15 23:42:00,13.6,12.0,30.00,ENE,70,0.0,0.0,93,0.00,,,0.00,0.0,meteohub,2013-11-16 08:42:00,
2013-11-15 23:47:00,13.8,12.0,30.00,ENE,70,0.0,0.0,92,0.00,,,0.00,0.0,meteohub,2013-11-16 08:47:00,
2013-11-15 23:51:00,13.8,12.0,30.00,ENE,70,0.0,0.0,92,0.00,,,0.00,0.0,meteohub,2013-11-16 08:51:00,
2013-11-15 23:57:00,14.2,12.6,30.00,ENE,69,0.0,0.0,93,0.00,,,0.00,0.0,meteohub,2013-11-16 08:57:00,